createdAt,value
2022-09-20T00:00:44.668Z,5.70
2022-09-20T00:03:20.155Z,5.23
2022-09-20T00:05:54.645Z,5.27
2022-09-20T00:08:31.276Z,5.40
2022-09-20T00:11:07.955Z,5.87
2022-09-20T00:13:44.058Z,5.27
2022-09-20T00:16:20.018Z,5.97
2022-09-20T00:18:54.345Z,6.23
2022-09-20T00:21:30.885Z,5.80
2022-09-20T00:24:28.456Z,5.80
2022-09-20T00:27:03.771Z,5.97
2022-09-20T00:29:39.284Z,6.20
2022-09-20T00:32:14.035Z,6.20
2022-09-20T00:35:04.124Z,6.33
2022-09-20T00:37:38.765Z,6.70
2022-09-20T00:40:19.596Z,6.27
2022-09-20T00:42:55.029Z,6.57
2022-09-20T00:45:32.788Z,6.50
2022-09-20T00:48:11.403Z,6.70
2022-09-20T00:50:48.284Z,6.87
2022-09-20T00:53:26.231Z,7.63
2022-09-20T00:56:05.635Z,7.73
2022-09-20T00:58:43.983Z,8.60
2022-09-20T01:01:19.617Z,7.73
2022-09-20T01:03:54.579Z,7.87
2022-09-20T01:06:29.065Z,8.17
2022-09-20T01:09:06.247Z,9.13
2022-09-20T01:11:44.864Z,8.60
2022-09-20T01:14:20.515Z,9.63
2022-09-20T01:16:55.513Z,8.90
2022-09-20T01:19:38.821Z,9.37
2022-09-20T01:22:21.602Z,8.57
2022-09-20T01:25:11.272Z,8.80
2022-09-20T01:27:49.532Z,8.00
2022-09-20T01:30:26.058Z,8.00
2022-09-20T01:33:11.779Z,7.83
2022-09-20T01:35:48.400Z,8.77
2022-09-20T01:38:33.721Z,7.53
2022-09-20T01:41:12.693Z,7.57
2022-09-20T01:43:55.361Z,8.20
2022-09-20T01:46:34.565Z,7.83
2022-09-20T01:49:22.386Z,6.27
2022-09-20T01:52:29.589Z,6.63
2022-09-20T01:55:41.702Z,6.03
2022-09-20T01:59:07.263Z,6.20
2022-09-20T02:02:12.569Z,6.70
2022-09-20T02:05:14.375Z,6.23
2022-09-20T02:08:10.338Z,5.73
2022-09-20T02:11:04.347Z,6.80
2022-09-20T02:14:06.465Z,6.60
2022-09-20T02:16:50.645Z,5.57
2022-09-20T02:19:55.238Z,6.60
2022-09-20T02:22:41.229Z,6.40
2022-09-20T02:25:33.955Z,6.00
2022-09-20T02:28:23.854Z,6.53
2022-09-20T02:31:07.213Z,6.83
2022-09-20T02:34:07.105Z,6.20
2022-09-20T02:36:51.724Z,6.33
2022-09-20T02:39:32.140Z,6.13
2022-09-20T02:42:16.340Z,6.07
2022-09-20T02:45:09.114Z,6.30
2022-09-20T02:47:47.418Z,6.40
2022-09-20T02:50:35.870Z,6.60
2022-09-20T02:53:30.034Z,6.77
2022-09-20T02:56:17.244Z,6.80
2022-09-20T02:59:01.644Z,7.17
2022-09-20T03:01:48.201Z,7.97
2022-09-20T03:04:37.491Z,6.80
2022-09-20T03:07:23.568Z,6.50
2022-09-20T03:10:07.820Z,6.93
2022-09-20T03:12:54.558Z,6.50
2022-09-20T03:15:44.900Z,6.20
2022-09-20T03:18:23.778Z,6.47
2022-09-20T03:21:04.497Z,6.67
2022-09-20T03:23:59.518Z,6.40
2022-09-20T03:26:57.851Z,6.80
2022-09-20T03:29:51.822Z,6.47
2022-09-20T03:32:42.877Z,8.03
2022-09-20T03:35:35.180Z,7.43
2022-09-20T03:38:24.221Z,8.40
2022-09-20T03:41:24.832Z,8.77
2022-09-20T03:44:14.783Z,7.67
2022-09-20T03:46:54.765Z,8.60
2022-09-20T03:49:57.204Z,8.83
2022-09-20T03:53:01.641Z,8.20
2022-09-20T03:56:11.160Z,8.30
2022-09-20T03:59:07.472Z,8.80
2022-09-20T04:02:14.254Z,7.83
2022-09-20T04:04:59.370Z,7.50
2022-09-20T04:08:00.596Z,8.33
2022-09-20T04:10:57.128Z,8.27
2022-09-20T04:13:46.801Z,7.77
2022-09-20T04:16:47.319Z,8.90
2022-09-20T04:19:36.472Z,9.00
2022-09-20T04:22:28.424Z,9.17
2022-09-20T04:25:38.181Z,8.73
2022-09-20T04:28:21.954Z,9.67
2022-09-20T04:31:04.326Z,10.80
2022-09-20T04:33:45.697Z,10.10
2022-09-20T04:36:46.213Z,9.77
2022-09-20T04:39:31.119Z,10.00
2022-09-20T04:42:40.056Z,8.93
2022-09-20T04:45:52.575Z,8.37
2022-09-20T04:49:07.572Z,8.13
2022-09-20T04:52:23.549Z,8.70
2022-09-20T04:55:35.223Z,8.93
2022-09-20T04:59:01.643Z,8.33
2022-09-20T05:02:07.350Z,9.70
2022-09-20T05:05:17.492Z,8.37
2022-09-20T05:08:44.103Z,8.03
2022-09-20T05:11:49.353Z,7.90
2022-09-20T05:15:00.764Z,9.57
2022-09-20T05:17:53.770Z,8.67
2022-09-20T05:21:13.541Z,8.33
2022-09-20T05:24:10.771Z,8.00
2022-09-20T05:27:01.106Z,8.00
2022-09-20T05:29:44.557Z,7.87
2022-09-20T05:32:28.317Z,8.23
2022-09-20T05:35:10.114Z,7.43
2022-09-20T05:37:54.779Z,9.33
2022-09-20T05:40:37.474Z,8.67
2022-09-20T05:43:17.078Z,7.97
2022-09-20T05:46:23.501Z,7.97
2022-09-20T05:49:08.587Z,8.40
2022-09-20T05:52:03.714Z,9.00
2022-09-20T05:55:01.325Z,8.50
2022-09-20T05:57:52.534Z,7.97
2022-09-20T06:00:42.291Z,8.23
2022-09-20T06:03:49.188Z,8.15
2022-09-20T06:06:45.287Z,8.10
2022-09-20T06:09:57.015Z,7.57
2022-09-20T06:12:57.380Z,7.82
2022-09-20T06:15:42.712Z,9.00
2022-09-20T06:18:27.405Z,8.02
2022-09-20T06:21:14.103Z,8.27
2022-09-20T06:23:49.509Z,8.18
2022-09-20T06:26:27.777Z,7.88
2022-09-20T06:29:08.488Z,8.10
2022-09-20T06:31:44.626Z,7.63
2022-09-20T06:34:24.290Z,7.05
2022-09-20T06:37:26.537Z,6.57
2022-09-20T06:40:22.988Z,6.97
2022-09-20T06:43:01.474Z,7.07
2022-09-20T06:45:43.132Z,7.18
2022-09-20T06:48:20.899Z,6.30
2022-09-20T06:51:00.588Z,6.10
2022-09-20T06:53:39.784Z,5.35
2022-09-20T06:56:23.751Z,5.50
2022-09-20T06:58:59.623Z,6.70
2022-09-20T07:01:36.873Z,6.55
2022-09-20T07:04:12.336Z,6.20
2022-09-20T07:06:48.068Z,6.95
2022-09-20T07:09:24.090Z,6.30
2022-09-20T07:12:00.579Z,5.80
2022-09-20T07:14:36.123Z,6.32
2022-09-20T07:17:13.678Z,6.68
2022-09-20T07:19:49.096Z,6.47
2022-09-20T07:22:30.130Z,6.70
2022-09-20T07:25:06.517Z,6.22
2022-09-20T07:27:43.195Z,6.00
2022-09-20T07:30:22.176Z,6.45
2022-09-20T07:32:59.936Z,5.78
2022-09-20T07:35:37.900Z,6.03
2022-09-20T07:38:14.387Z,5.70
2022-09-20T07:40:49.604Z,5.95
2022-09-20T07:43:30.317Z,5.90
2022-09-20T07:46:05.271Z,6.10
2022-09-20T07:48:47.930Z,6.50
2022-09-20T07:51:30.637Z,6.27
2022-09-20T07:54:15.343Z,6.17
2022-09-20T07:56:53.705Z,6.10
2022-09-20T07:59:36.855Z,5.43
2022-09-20T08:02:14.225Z,5.70
2022-09-20T08:05:00.886Z,6.40
2022-09-20T08:07:36.957Z,6.30
2022-09-20T08:10:24.973Z,5.87
2022-09-20T08:16:07.096Z,5.90
2022-09-20T08:18:51.265Z,6.13
2022-09-20T08:21:28.219Z,6.03
2022-09-20T08:24:03.594Z,6.13
2022-09-20T08:26:38.856Z,6.63
2022-09-20T08:29:14.051Z,6.80
2022-09-20T08:31:49.287Z,6.90
2022-09-20T08:34:30.046Z,5.90
2022-09-20T08:37:09.594Z,6.67
2022-09-20T08:39:58.420Z,7.67
2022-09-20T08:42:43.765Z,7.40
2022-09-20T08:45:34.390Z,8.67
2022-09-20T08:48:16.787Z,8.20
2022-09-20T08:51:05.600Z,7.03
2022-09-20T08:53:49.111Z,6.47
2022-09-20T08:56:26.411Z,7.27
2022-09-20T08:59:01.869Z,7.20
2022-09-20T09:01:36.728Z,6.23
2022-09-20T09:04:22.756Z,8.37
2022-09-20T09:06:59.375Z,8.67
2022-09-20T09:09:53.120Z,8.53
2022-09-20T09:12:30.871Z,10.47
2022-09-20T09:15:28.700Z,9.70
2022-09-20T09:18:04.462Z,10.93
2022-09-20T09:20:48.257Z,10.90
2022-09-20T09:23:33.819Z,10.23
2022-09-20T09:26:23.127Z,10.53
2022-09-20T09:29:23.162Z,10.00
2022-09-20T09:31:59.838Z,10.03
2022-09-20T09:34:39.894Z,10.13
2022-09-20T09:37:28.989Z,10.07
2022-09-20T09:40:17.614Z,10.73
2022-09-20T09:42:59.823Z,11.20
2022-09-20T09:45:39.890Z,12.53
2022-09-20T09:48:24.957Z,10.83
2022-09-20T09:51:19.622Z,9.90
2022-09-20T09:53:56.563Z,10.40
2022-09-20T09:56:41.468Z,11.07
2022-09-20T09:59:31.440Z,8.87
2022-09-20T10:02:20.309Z,8.10
2022-09-20T10:05:03.463Z,8.27
2022-09-20T10:07:46.741Z,7.53
2022-09-20T10:10:38.315Z,7.93
2022-09-20T10:13:26.566Z,7.57
2022-09-20T10:16:11.649Z,6.90
2022-09-20T10:18:51.531Z,7.50
2022-09-20T10:21:43.430Z,7.03
2022-09-20T10:24:32.034Z,6.70
2022-09-20T10:27:32.512Z,7.40
2022-09-20T10:30:13.128Z,7.93
2022-09-20T10:33:14.447Z,6.60
2022-09-20T10:36:14.497Z,7.37
2022-09-20T10:38:58.584Z,8.00
2022-09-20T10:42:13.951Z,7.00
2022-09-20T10:45:07.040Z,6.70
2022-09-20T10:47:47.051Z,6.90
2022-09-20T10:50:37.281Z,7.40
2022-09-20T10:53:31.922Z,7.10
2022-09-20T10:56:20.939Z,7.07
2022-09-20T10:59:10.053Z,6.80
2022-09-20T11:01:52.866Z,8.03
2022-09-20T11:04:57.886Z,7.37
2022-09-20T11:07:49.962Z,11.97
2022-09-20T11:10:30.167Z,9.77
2022-09-20T11:13:11.100Z,7.83
2022-09-20T11:15:49.307Z,7.73
2022-09-20T11:18:31.066Z,11.80
2022-09-20T11:21:12.817Z,7.40
2022-09-20T11:23:55.294Z,7.10
2022-09-20T11:26:40.369Z,7.03
2022-09-20T11:29:29.982Z,8.00
2022-09-20T11:32:14.006Z,7.30
2022-09-20T11:34:55.922Z,7.37
2022-09-20T11:37:42.588Z,7.67
2022-09-20T11:40:28.105Z,7.07
2022-09-20T11:43:08.466Z,7.47
2022-09-20T11:45:45.949Z,7.57
2022-09-20T11:48:25.431Z,7.57
2022-09-20T11:51:25.732Z,7.73
2022-09-20T11:54:31.624Z,7.27
2022-09-20T11:57:10.337Z,8.33
2022-09-20T12:00:12.224Z,7.90
2022-09-20T12:02:58.259Z,8.47
2022-09-20T12:05:47.651Z,8.73
2022-09-20T12:08:28.802Z,8.37
2022-09-20T12:11:06.563Z,8.87
2022-09-20T12:13:48.311Z,8.90
2022-09-20T12:16:39.105Z,8.67
2022-09-20T12:19:18.972Z,8.47
2022-09-20T12:22:31.974Z,8.80
2022-09-20T12:25:42.702Z,8.57
2022-09-20T12:28:43.170Z,9.57
2022-09-20T12:31:51.804Z,9.50
2022-09-20T12:34:43.304Z,9.53
2022-09-20T12:37:35.461Z,10.10
2022-09-20T12:40:20.506Z,9.87
2022-09-20T12:43:02.551Z,10.33
2022-09-20T12:45:37.459Z,10.00
2022-09-20T12:48:23.816Z,10.20
2022-09-20T12:51:38.074Z,10.73
2022-09-20T12:54:16.924Z,10.67
2022-09-20T12:56:58.947Z,10.43
2022-09-20T12:59:37.794Z,10.53
2022-09-20T13:02:46.136Z,10.20
2022-09-20T13:08:25.878Z,10.10
2022-09-20T13:11:20.956Z,10.63
2022-09-20T13:14:00.958Z,10.30
2022-09-20T13:16:48.772Z,9.97
2022-09-20T13:19:38.209Z,11.13
2022-09-20T13:22:22.502Z,10.73
2022-09-20T13:25:17.760Z,10.93
2022-09-20T13:27:59.708Z,10.83
2022-09-20T13:30:49.478Z,10.50
2022-09-20T13:33:43.003Z,11.03
2022-09-20T13:36:51.003Z,10.80
2022-09-20T13:39:39.468Z,11.00
2022-09-20T13:42:29.137Z,10.70
2022-09-20T13:45:05.015Z,10.70
2022-09-20T13:47:48.016Z,10.70
2022-09-20T13:50:30.544Z,11.50
2022-09-20T13:53:39.331Z,11.03
2022-09-20T13:56:21.700Z,10.93
2022-09-20T13:59:02.785Z,11.07
2022-09-20T14:01:44.276Z,10.57
2022-09-20T14:04:25.301Z,12.37
2022-09-20T14:07:22.238Z,12.23
2022-09-20T14:10:04.892Z,12.07
2022-09-20T14:12:40.368Z,10.83
2022-09-20T14:15:40.110Z,12.13
2022-09-20T14:18:21.371Z,13.27
2022-09-20T14:21:03.276Z,14.37
2022-09-20T14:24:05.074Z,13.03
2022-09-20T14:26:49.221Z,12.70
2022-09-20T14:30:00.900Z,13.33
2022-09-20T14:32:57.438Z,13.80
2022-09-20T14:35:36.655Z,13.47
2022-09-20T14:38:28.359Z,13.30
2022-09-20T14:41:13.007Z,13.70
2022-09-20T14:43:48.346Z,14.53
2022-09-20T14:46:23.089Z,13.57
2022-09-20T14:49:27.722Z,13.77
2022-09-20T14:52:48.891Z,13.23
2022-09-20T14:55:31.712Z,14.77
2022-09-20T14:58:16.875Z,13.53
2022-09-20T15:01:05.348Z,13.93
2022-09-20T15:03:47.248Z,13.97
2022-09-20T15:06:34.913Z,14.20
2022-09-20T15:09:09.798Z,13.00
2022-09-20T15:11:47.101Z,13.10
2022-09-20T15:14:20.887Z,13.67
2022-09-20T15:16:57.884Z,14.47
2022-09-20T15:19:36.758Z,14.97
2022-09-20T15:22:16.809Z,14.53
2022-09-20T15:24:57.396Z,14.20
2022-09-20T15:27:36.508Z,14.77
2022-09-20T15:30:21.142Z,14.93
2022-09-20T15:32:59.652Z,14.50
2022-09-20T15:35:40.299Z,14.93
2022-09-20T15:38:19.735Z,15.13
2022-09-20T15:40:56.211Z,14.57
2022-09-20T15:43:35.420Z,14.17
2022-09-20T15:46:23.913Z,14.90
2022-09-20T15:49:13.935Z,14.80
2022-09-20T15:51:51.415Z,14.17
2022-09-20T15:54:28.487Z,13.83
2022-09-20T15:57:02.686Z,14.43
2022-09-20T15:59:40.270Z,13.87
2022-09-20T16:02:20.025Z,12.80
2022-09-20T16:04:56.934Z,13.77
2022-09-20T16:07:42.273Z,13.63
2022-09-20T16:10:27.768Z,13.17
2022-09-20T16:13:05.839Z,13.10
2022-09-20T16:15:40.527Z,12.90
2022-09-20T16:18:32.324Z,13.57
2022-09-20T16:21:15.708Z,12.87
2022-09-20T16:23:56.823Z,12.93
2022-09-20T16:26:35.649Z,14.07
2022-09-20T16:29:10.452Z,14.03
2022-09-20T16:31:52.231Z,13.40
2022-09-20T16:34:30.854Z,13.00
2022-09-20T16:37:07.769Z,15.73
2022-09-20T16:39:46.101Z,17.73
2022-09-20T16:42:34.364Z,13.73
2022-09-20T16:45:15.714Z,15.90
2022-09-20T16:47:49.957Z,15.00
2022-09-20T16:50:24.408Z,13.63
2022-09-20T16:53:00.019Z,13.67
2022-09-20T16:55:35.123Z,13.80
2022-09-20T16:58:19.335Z,14.80
2022-09-20T17:00:57.777Z,14.47
2022-09-20T17:03:34.232Z,15.07
2022-09-20T17:06:13.908Z,14.60
2022-09-20T17:08:59.694Z,13.97
2022-09-20T17:11:37.384Z,16.27
2022-09-20T17:14:18.561Z,13.27
2022-09-20T17:16:58.930Z,13.90
2022-09-20T17:19:33.914Z,14.53
2022-09-20T17:22:13.925Z,13.27
2022-09-20T17:24:49.400Z,14.27
2022-09-20T17:27:23.226Z,14.07
2022-09-20T17:30:00.032Z,13.87
2022-09-20T17:32:42.203Z,13.67
2022-09-20T17:35:17.957Z,13.70
2022-09-20T17:37:52.651Z,13.70
2022-09-20T17:40:39.392Z,13.47
2022-09-20T17:43:14.641Z,14.23
2022-09-20T17:45:52.015Z,14.53
2022-09-20T17:48:32.337Z,14.83
2022-09-20T17:51:12.218Z,13.63
2022-09-20T17:53:46.421Z,13.20
2022-09-20T17:56:21.769Z,13.90
2022-09-20T17:58:57.136Z,13.87
2022-09-20T18:01:35.068Z,13.00
2022-09-20T18:04:11.383Z,13.37
2022-09-20T18:06:47.822Z,13.30
2022-09-20T18:09:24.691Z,14.90
2022-09-20T18:12:00.061Z,14.03
2022-09-20T18:14:35.149Z,14.20
2022-09-20T18:17:12.207Z,13.83
2022-09-20T18:19:46.440Z,13.57
2022-09-20T18:22:21.805Z,13.37
2022-09-20T18:24:56.019Z,14.20
2022-09-20T18:27:30.130Z,13.67
2022-09-20T18:30:03.929Z,14.57
2022-09-20T18:32:41.434Z,14.07
2022-09-20T18:35:16.775Z,14.97
2022-09-20T18:37:51.788Z,13.77
2022-09-20T18:40:26.444Z,14.10
2022-09-20T18:43:04.628Z,13.90
2022-09-20T18:45:39.717Z,13.90
2022-09-20T18:48:16.778Z,13.97
2022-09-20T18:51:02.434Z,14.23
2022-09-20T18:53:39.253Z,14.60
2022-09-20T18:56:18.641Z,14.20
2022-09-20T18:58:53.979Z,14.47
2022-09-20T19:01:54.641Z,14.77
2022-09-20T19:04:56.793Z,13.73
2022-09-20T19:07:44.649Z,15.63
2022-09-20T19:10:27.154Z,15.10
2022-09-20T19:13:06.291Z,14.77
2022-09-20T19:15:58.184Z,15.43
2022-09-20T19:18:50.508Z,14.57
2022-09-20T19:21:31.760Z,14.67
2022-09-20T19:24:19.670Z,14.97
2022-09-20T19:26:54.235Z,13.80
2022-09-20T19:29:30.264Z,14.67
2022-09-20T19:32:05.374Z,14.33
2022-09-20T19:34:40.642Z,13.93
2022-09-20T19:37:27.560Z,14.00
2022-09-20T19:40:21.905Z,14.33
2022-09-20T19:43:08.406Z,14.10
2022-09-20T19:45:49.332Z,15.43
2022-09-20T19:48:31.500Z,14.10
2022-09-20T19:51:09.328Z,14.67
2022-09-20T19:53:45.820Z,14.40
2022-09-20T19:56:28.754Z,14.13
2022-09-20T19:59:03.339Z,14.40
2022-09-20T20:01:38.501Z,15.13
2022-09-20T20:04:14.456Z,14.57
2022-09-20T20:06:55.860Z,14.90
2022-09-20T20:09:43.761Z,15.10
2022-09-20T20:12:25.997Z,15.13
2022-09-20T20:15:07.852Z,15.10
2022-09-20T20:17:56.497Z,14.53
2022-09-20T20:20:37.507Z,13.50
2022-09-20T20:23:30.423Z,14.17
2022-09-20T20:26:10.638Z,13.27
2022-09-20T20:28:45.116Z,13.20
2022-09-20T20:31:23.272Z,13.70
2022-09-20T20:33:57.342Z,14.10
2022-09-20T20:36:30.555Z,12.77
2022-09-20T20:39:04.002Z,12.97
2022-09-20T20:41:40.152Z,12.67
2022-09-20T20:44:14.289Z,13.00
2022-09-20T20:46:55.183Z,13.07
2022-09-20T20:49:29.781Z,13.13
2022-09-20T20:52:05.922Z,12.47
2022-09-20T20:54:39.197Z,12.07
2022-09-20T20:57:15.040Z,11.77
2022-09-20T20:59:49.754Z,12.07
2022-09-20T21:02:44.706Z,10.87
2022-09-20T21:05:19.307Z,11.73
2022-09-20T21:07:55.556Z,11.10
2022-09-20T21:10:29.071Z,10.77
2022-09-20T21:13:04.727Z,11.20
2022-09-20T21:15:39.230Z,10.37
2022-09-20T21:18:13.402Z,10.30
2022-09-20T21:20:47.229Z,11.13
2022-09-20T21:23:21.354Z,10.67
2022-09-20T21:26:08.514Z,11.47
2022-09-20T21:28:45.305Z,10.70
2022-09-20T21:31:19.271Z,10.30
2022-09-20T21:33:54.194Z,10.53
2022-09-20T21:36:29.841Z,10.93
2022-09-20T21:39:03.302Z,10.40
2022-09-20T21:41:38.785Z,9.97
2022-09-20T21:44:16.520Z,11.00
2022-09-20T21:46:51.696Z,10.63
2022-09-20T21:49:24.883Z,9.60
2022-09-20T21:51:58.525Z,10.10
2022-09-20T21:54:32.029Z,10.73
2022-09-20T21:57:06.257Z,9.30
2022-09-20T21:59:42.454Z,9.27
2022-09-20T22:02:18.170Z,9.17
2022-09-20T22:04:52.390Z,9.37
2022-09-20T22:07:26.931Z,8.53
2022-09-20T22:10:01.138Z,9.33
2022-09-20T22:12:34.688Z,8.80
2022-09-20T22:15:11.664Z,9.13
2022-09-20T22:17:45.506Z,8.60
2022-09-20T22:20:19.501Z,9.47
2022-09-20T22:22:53.946Z,9.50
2022-09-20T22:25:27.398Z,9.10
2022-09-20T22:28:01.052Z,9.17
2022-09-20T22:30:37.716Z,9.57
2022-09-20T22:33:11.229Z,9.80
2022-09-20T22:35:49.960Z,9.80
2022-09-20T22:38:23.471Z,10.37
2022-09-20T22:41:02.076Z,10.40
2022-09-20T22:43:37.771Z,10.70
2022-09-20T22:46:14.673Z,12.33
2022-09-20T22:48:49.042Z,12.23
2022-09-20T22:51:23.873Z,11.77
2022-09-20T22:53:57.632Z,12.10
2022-09-20T22:56:33.058Z,11.97
2022-09-20T22:59:10.353Z,12.23
2022-09-20T23:01:47.786Z,12.37
2022-09-20T23:04:24.770Z,12.70
2022-09-20T23:06:59.589Z,12.67
2022-09-20T23:09:34.484Z,13.10
2022-09-20T23:12:08.687Z,12.57
2022-09-20T23:14:43.101Z,12.90
2022-09-20T23:17:19.028Z,12.23
2022-09-20T23:19:54.127Z,11.77
2022-09-20T23:22:28.638Z,11.37
2022-09-20T23:25:03.087Z,12.37
2022-09-20T23:27:37.231Z,11.43
2022-09-20T23:30:12.575Z,12.13
2022-09-20T23:32:48.315Z,11.33
2022-09-20T23:35:22.774Z,12.30
2022-09-20T23:37:57.990Z,11.37
2022-09-20T23:40:33.319Z,12.03
2022-09-20T23:43:08.023Z,11.80
2022-09-20T23:45:44.831Z,11.87
2022-09-20T23:48:21.612Z,12.07
2022-09-20T23:50:59.935Z,11.30
2022-09-20T23:53:35.612Z,10.67
2022-09-20T23:56:10.832Z,9.27
2022-09-20T23:58:47.309Z,8.67
